sensor_id;sensor_type;location;lat;lon;timestamp;P1;durP1;ratioP1;P2;durP2;ratioP2
85303;SDS011;75708;47.930;13.782;2024-02-04T00:01:52;6.78;;;4.20;;
85303;SDS011;75708;47.930;13.782;2024-02-04T00:04:17;9.18;;;4.78;;
85303;SDS011;75708;47.930;13.782;2024-02-04T00:06:43;4.50;;;2.72;;
85303;SDS011;75708;47.930;13.782;2024-02-04T00:09:08;6.40;;;4.00;;
85303;SDS011;75708;47.930;13.782;2024-02-04T00:11:34;4.35;;;2.97;;
85303;SDS011;75708;47.930;13.782;2024-02-04T00:14:00;4.40;;;2.75;;
85303;SDS011;75708;47.930;13.782;2024-02-04T00:16:26;5.25;;;3.03;;
85303;SDS011;75708;47.930;13.782;2024-02-04T00:18:52;6.32;;;3.65;;
85303;SDS011;75708;47.930;13.782;2024-02-04T00:21:18;5.68;;;3.45;;
85303;SDS011;75708;47.930;13.782;2024-02-04T00:23:44;5.25;;;2.10;;
85303;SDS011;75708;47.930;13.782;2024-02-04T00:26:09;6.78;;;3.92;;
85303;SDS011;75708;47.930;13.782;2024-02-04T00:28:35;5.70;;;3.80;;
85303;SDS011;75708;47.930;13.782;2024-02-04T00:31:01;5.28;;;3.60;;
85303;SDS011;75708;47.930;13.782;2024-02-04T00:33:26;4.20;;;2.47;;
85303;SDS011;75708;47.930;13.782;2024-02-04T00:35:52;4.18;;;2.60;;
85303;SDS011;75708;47.930;13.782;2024-02-04T00:38:18;5.85;;;3.17;;
85303;SDS011;75708;47.930;13.782;2024-02-04T00:40:43;5.18;;;3.33;;
85303;SDS011;75708;47.930;13.782;2024-02-04T00:43:09;4.25;;;2.42;;
85303;SDS011;75708;47.930;13.782;2024-02-04T00:45:35;5.50;;;3.50;;
85303;SDS011;75708;47.930;13.782;2024-02-04T00:48:01;4.43;;;2.70;;
85303;SDS011;75708;47.930;13.782;2024-02-04T00:50:27;4.30;;;2.85;;
85303;SDS011;75708;47.930;13.782;2024-02-04T00:52:52;4.10;;;2.85;;
85303;SDS011;75708;47.930;13.782;2024-02-04T00:55:19;3.03;;;2.42;;
85303;SDS011;75708;47.930;13.782;2024-02-04T00:57:45;4.90;;;2.60;;
85303;SDS011;75708;47.930;13.782;2024-02-04T01:00:11;4.70;;;2.47;;
85303;SDS011;75708;47.930;13.782;2024-02-04T01:02:38;4.50;;;2.65;;
85303;SDS011;75708;47.930;13.782;2024-02-04T01:05:04;5.65;;;2.88;;
85303;SDS011;75708;47.930;13.782;2024-02-04T01:07:30;4.25;;;2.55;;
85303;SDS011;75708;47.930;13.782;2024-02-04T01:09:56;3.42;;;2.15;;
85303;SDS011;75708;47.930;13.782;2024-02-04T01:12:21;5.63;;;2.22;;
85303;SDS011;75708;47.930;13.782;2024-02-04T01:14:47;2.35;;;1.42;;
85303;SDS011;75708;47.930;13.782;2024-02-04T01:17:13;4.38;;;1.75;;
85303;SDS011;75708;47.930;13.782;2024-02-04T01:19:38;5.78;;;2.45;;
85303;SDS011;75708;47.930;13.782;2024-02-04T01:22:04;2.20;;;1.55;;
85303;SDS011;75708;47.930;13.782;2024-02-04T01:24:31;3.75;;;2.72;;
85303;SDS011;75708;47.930;13.782;2024-02-04T01:26:57;4.50;;;2.17;;
85303;SDS011;75708;47.930;13.782;2024-02-04T01:29:22;2.85;;;1.80;;
85303;SDS011;75708;47.930;13.782;2024-02-04T01:31:48;3.35;;;2.03;;
85303;SDS011;75708;47.930;13.782;2024-02-04T01:34:14;4.15;;;2.60;;
85303;SDS011;75708;47.930;13.782;2024-02-04T01:36:40;3.35;;;2.40;;
85303;SDS011;75708;47.930;13.782;2024-02-04T01:39:05;2.92;;;2.05;;
85303;SDS011;75708;47.930;13.782;2024-02-04T01:41:32;3.85;;;2.13;;
85303;SDS011;75708;47.930;13.782;2024-02-04T01:43:58;3.05;;;1.33;;
85303;SDS011;75708;47.930;13.782;2024-02-04T01:46:24;2.78;;;2.05;;
85303;SDS011;75708;47.930;13.782;2024-02-04T01:48:50;2.65;;;1.50;;
85303;SDS011;75708;47.930;13.782;2024-02-04T01:51:16;5.10;;;2.42;;
85303;SDS011;75708;47.930;13.782;2024-02-04T01:53:44;3.35;;;2.00;;
85303;SDS011;75708;47.930;13.782;2024-02-04T01:56:11;2.38;;;1.40;;
85303;SDS011;75708;47.930;13.782;2024-02-04T01:58:38;3.72;;;2.20;;
85303;SDS011;75708;47.930;13.782;2024-02-04T02:01:05;3.00;;;1.85;;
85303;SDS011;75708;47.930;13.782;2024-02-04T02:03:31;2.60;;;1.77;;
85303;SDS011;75708;47.930;13.782;2024-02-04T02:05:57;2.88;;;1.65;;
85303;SDS011;75708;47.930;13.782;2024-02-04T02:08:25;5.00;;;1.73;;
85303;SDS011;75708;47.930;13.782;2024-02-04T02:10:51;3.78;;;2.55;;
85303;SDS011;75708;47.930;13.782;2024-02-04T02:13:27;3.25;;;1.63;;
85303;SDS011;75708;47.930;13.782;2024-02-04T02:15:59;3.40;;;1.77;;
85303;SDS011;75708;47.930;13.782;2024-02-04T02:18:44;3.53;;;2.15;;
85303;SDS011;75708;47.930;13.782;2024-02-04T02:22:00;4.18;;;1.95;;
85303;SDS011;75708;47.930;13.782;2024-02-04T02:26:49;3.10;;;1.90;;
85303;SDS011;75708;47.930;13.782;2024-02-04T02:29:16;2.83;;;1.55;;
85303;SDS011;75708;47.930;13.782;2024-02-04T02:31:42;3.97;;;2.13;;
85303;SDS011;75708;47.930;13.782;2024-02-04T02:34:08;2.05;;;1.23;;
85303;SDS011;75708;47.930;13.782;2024-02-04T02:36:44;3.17;;;1.70;;
85303;SDS011;75708;47.930;13.782;2024-02-04T02:39:15;3.08;;;2.10;;
85303;SDS011;75708;47.930;13.782;2024-02-04T02:41:48;2.67;;;2.00;;
85303;SDS011;75708;47.930;13.782;2024-02-04T02:44:18;3.47;;;2.22;;
85303;SDS011;75708;47.930;13.782;2024-02-04T02:46:46;3.42;;;1.80;;
85303;SDS011;75708;47.930;13.782;2024-02-04T02:49:13;4.03;;;2.45;;
85303;SDS011;75708;47.930;13.782;2024-02-04T02:51:39;3.45;;;2.40;;
85303;SDS011;75708;47.930;13.782;2024-02-04T02:54:04;4.50;;;1.80;;
85303;SDS011;75708;47.930;13.782;2024-02-04T02:56:30;3.97;;;2.50;;
85303;SDS011;75708;47.930;13.782;2024-02-04T02:58:56;4.60;;;2.20;;
85303;SDS011;75708;47.930;13.782;2024-02-04T03:01:21;11.82;;;2.63;;
85303;SDS011;75708;47.930;13.782;2024-02-04T03:03:48;3.25;;;2.25;;
85303;SDS011;75708;47.930;13.782;2024-02-04T03:06:14;2.95;;;1.73;;
85303;SDS011;75708;47.930;13.782;2024-02-04T03:08:40;2.33;;;1.90;;
85303;SDS011;75708;47.930;13.782;2024-02-04T03:11:06;3.28;;;1.92;;
85303;SDS011;75708;47.930;13.782;2024-02-04T03:13:32;3.85;;;2.08;;
85303;SDS011;75708;47.930;13.782;2024-02-04T03:15:57;3.50;;;1.85;;
85303;SDS011;75708;47.930;13.782;2024-02-04T03:18:23;2.78;;;1.88;;
85303;SDS011;75708;47.930;13.782;2024-02-04T03:20:49;3.38;;;1.88;;
85303;SDS011;75708;47.930;13.782;2024-02-04T03:23:14;2.67;;;1.55;;
85303;SDS011;75708;47.930;13.782;2024-02-04T03:25:40;2.30;;;1.23;;
85303;SDS011;75708;47.930;13.782;2024-02-04T03:28:06;4.28;;;1.90;;
85303;SDS011;75708;47.930;13.782;2024-02-04T03:30:31;3.15;;;1.85;;
85303;SDS011;75708;47.930;13.782;2024-02-04T03:32:57;3.55;;;2.13;;
85303;SDS011;75708;47.930;13.782;2024-02-04T03:35:23;5.63;;;2.05;;
85303;SDS011;75708;47.930;13.782;2024-02-04T03:37:48;3.05;;;1.60;;
85303;SDS011;75708;47.930;13.782;2024-02-04T03:40:14;2.38;;;1.60;;
85303;SDS011;75708;47.930;13.782;2024-02-04T03:42:40;5.53;;;1.90;;
85303;SDS011;75708;47.930;13.782;2024-02-04T03:45:06;2.97;;;1.50;;
85303;SDS011;75708;47.930;13.782;2024-02-04T03:47:32;2.55;;;1.23;;
85303;SDS011;75708;47.930;13.782;2024-02-04T03:49:57;1.95;;;1.08;;
85303;SDS011;75708;47.930;13.782;2024-02-04T03:52:23;3.08;;;1.50;;
85303;SDS011;75708;47.930;13.782;2024-02-04T03:54:49;1.77;;;1.25;;
85303;SDS011;75708;47.930;13.782;2024-02-04T03:57:14;3.55;;;1.60;;
85303;SDS011;75708;47.930;13.782;2024-02-04T03:59:43;3.30;;;1.60;;
85303;SDS011;75708;47.930;13.782;2024-02-04T04:02:11;3.15;;;1.10;;
85303;SDS011;75708;47.930;13.782;2024-02-04T04:04:39;2.95;;;1.58;;
85303;SDS011;75708;47.930;13.782;2024-02-04T04:09:32;6.18;;;1.98;;
85303;SDS011;75708;47.930;13.782;2024-02-04T04:11:57;3.33;;;1.15;;
85303;SDS011;75708;47.930;13.782;2024-02-04T04:14:23;1.95;;;1.23;;
85303;SDS011;75708;47.930;13.782;2024-02-04T04:16:49;3.10;;;1.10;;
85303;SDS011;75708;47.930;13.782;2024-02-04T04:19:14;2.90;;;1.45;;
85303;SDS011;75708;47.930;13.782;2024-02-04T04:21:40;2.90;;;1.80;;
85303;SDS011;75708;47.930;13.782;2024-02-04T04:24:06;2.95;;;1.35;;
85303;SDS011;75708;47.930;13.782;2024-02-04T04:26:31;2.97;;;1.10;;
85303;SDS011;75708;47.930;13.782;2024-02-04T04:28:58;3.10;;;1.50;;
85303;SDS011;75708;47.930;13.782;2024-02-04T04:31:24;3.50;;;1.70;;
85303;SDS011;75708;47.930;13.782;2024-02-04T04:33:50;4.20;;;1.70;;
85303;SDS011;75708;47.930;13.782;2024-02-04T04:36:17;2.85;;;1.50;;
85303;SDS011;75708;47.930;13.782;2024-02-04T04:38:43;2.40;;;0.90;;
85303;SDS011;75708;47.930;13.782;2024-02-04T04:41:09;3.13;;;1.90;;
85303;SDS011;75708;47.930;13.782;2024-02-04T04:43:36;4.03;;;1.52;;
85303;SDS011;75708;47.930;13.782;2024-02-04T04:46:03;3.10;;;1.52;;
85303;SDS011;75708;47.930;13.782;2024-02-04T04:48:29;2.33;;;1.45;;
85303;SDS011;75708;47.930;13.782;2024-02-04T04:50:55;2.03;;;1.40;;
85303;SDS011;75708;47.930;13.782;2024-02-04T04:53:20;2.58;;;1.42;;
85303;SDS011;75708;47.930;13.782;2024-02-04T04:55:46;3.88;;;1.63;;
85303;SDS011;75708;47.930;13.782;2024-02-04T04:58:12;2.70;;;1.48;;
85303;SDS011;75708;47.930;13.782;2024-02-04T05:00:38;3.33;;;1.92;;
85303;SDS011;75708;47.930;13.782;2024-02-04T05:03:04;2.55;;;1.02;;
85303;SDS011;75708;47.930;13.782;2024-02-04T05:05:29;1.38;;;1.00;;
85303;SDS011;75708;47.930;13.782;2024-02-04T05:07:55;2.10;;;1.33;;
85303;SDS011;75708;47.930;13.782;2024-02-04T05:10:21;2.22;;;1.35;;
85303;SDS011;75708;47.930;13.782;2024-02-04T05:12:47;2.83;;;1.50;;
85303;SDS011;75708;47.930;13.782;2024-02-04T05:15:12;2.97;;;2.03;;
85303;SDS011;75708;47.930;13.782;2024-02-04T05:17:38;3.53;;;2.08;;
85303;SDS011;75708;47.930;13.782;2024-02-04T05:20:04;2.00;;;1.17;;
85303;SDS011;75708;47.930;13.782;2024-02-04T05:22:31;2.78;;;1.83;;
85303;SDS011;75708;47.930;13.782;2024-02-04T05:24:57;3.38;;;1.75;;
85303;SDS011;75708;47.930;13.782;2024-02-04T05:27:23;3.10;;;1.50;;
85303;SDS011;75708;47.930;13.782;2024-02-04T05:29:49;2.28;;;1.30;;
85303;SDS011;75708;47.930;13.782;2024-02-04T05:32:15;3.47;;;1.55;;
85303;SDS011;75708;47.930;13.782;2024-02-04T05:34:40;1.92;;;1.25;;
85303;SDS011;75708;47.930;13.782;2024-02-04T05:37:06;2.67;;;1.27;;
85303;SDS011;75708;47.930;13.782;2024-02-04T05:39:32;3.28;;;1.40;;
85303;SDS011;75708;47.930;13.782;2024-02-04T05:41:58;2.33;;;1.05;;
85303;SDS011;75708;47.930;13.782;2024-02-04T05:44:23;2.40;;;1.13;;
85303;SDS011;75708;47.930;13.782;2024-02-04T05:46:49;1.80;;;1.10;;
85303;SDS011;75708;47.930;13.782;2024-02-04T05:49:16;2.35;;;1.30;;
85303;SDS011;75708;47.930;13.782;2024-02-04T05:51:42;1.40;;;0.90;;
85303;SDS011;75708;47.930;13.782;2024-02-04T05:54:08;1.92;;;0.98;;
85303;SDS011;75708;47.930;13.782;2024-02-04T05:56:34;1.52;;;1.00;;
85303;SDS011;75708;47.930;13.782;2024-02-04T05:59:00;2.60;;;1.30;;
85303;SDS011;75708;47.930;13.782;2024-02-04T06:01:26;1.40;;;0.93;;
85303;SDS011;75708;47.930;13.782;2024-02-04T06:03:51;0.73;;;0.55;;
85303;SDS011;75708;47.930;13.782;2024-02-04T06:06:17;1.80;;;1.40;;
85303;SDS011;75708;47.930;13.782;2024-02-04T06:08:48;1.52;;;1.00;;
85303;SDS011;75708;47.930;13.782;2024-02-04T06:11:14;3.28;;;1.20;;
85303;SDS011;75708;47.930;13.782;2024-02-04T06:13:41;3.95;;;1.80;;
85303;SDS011;75708;47.930;13.782;2024-02-04T06:16:08;4.38;;;1.95;;
85303;SDS011;75708;47.930;13.782;2024-02-04T06:18:35;2.17;;;1.27;;
85303;SDS011;75708;47.930;13.782;2024-02-04T06:21:07;4.43;;;1.98;;
85303;SDS011;75708;47.930;13.782;2024-02-04T06:23:33;3.20;;;2.03;;
85303;SDS011;75708;47.930;13.782;2024-02-04T06:25:59;2.67;;;1.23;;
85303;SDS011;75708;47.930;13.782;2024-02-04T06:28:26;2.83;;;1.27;;
85303;SDS011;75708;47.930;13.782;2024-02-04T06:30:51;2.85;;;1.27;;
85303;SDS011;75708;47.930;13.782;2024-02-04T06:33:18;2.47;;;1.45;;
85303;SDS011;75708;47.930;13.782;2024-02-04T06:35:44;2.42;;;1.20;;
85303;SDS011;75708;47.930;13.782;2024-02-04T06:38:09;2.13;;;1.05;;
85303;SDS011;75708;47.930;13.782;2024-02-04T06:40:35;2.45;;;1.38;;
85303;SDS011;75708;47.930;13.782;2024-02-04T06:43:01;2.25;;;1.40;;
85303;SDS011;75708;47.930;13.782;2024-02-04T06:45:26;2.67;;;1.77;;
85303;SDS011;75708;47.930;13.782;2024-02-04T06:47:52;3.88;;;1.70;;
85303;SDS011;75708;47.930;13.782;2024-02-04T06:50:18;4.70;;;2.00;;
85303;SDS011;75708;47.930;13.782;2024-02-04T06:52:43;3.60;;;1.27;;
85303;SDS011;75708;47.930;13.782;2024-02-04T06:55:10;1.50;;;1.27;;
85303;SDS011;75708;47.930;13.782;2024-02-04T06:57:36;2.05;;;1.08;;
85303;SDS011;75708;47.930;13.782;2024-02-04T07:00:02;2.20;;;1.27;;
85303;SDS011;75708;47.930;13.782;2024-02-04T07:02:33;2.10;;;1.65;;
85303;SDS011;75708;47.930;13.782;2024-02-04T07:04:59;1.73;;;0.85;;
85303;SDS011;75708;47.930;13.782;2024-02-04T07:07:25;3.03;;;1.77;;
85303;SDS011;75708;47.930;13.782;2024-02-04T07:09:50;2.60;;;1.52;;
85303;SDS011;75708;47.930;13.782;2024-02-04T07:12:16;3.58;;;1.25;;
85303;SDS011;75708;47.930;13.782;2024-02-04T07:14:42;2.15;;;1.50;;
85303;SDS011;75708;47.930;13.782;2024-02-04T07:17:07;2.25;;;1.35;;
85303;SDS011;75708;47.930;13.782;2024-02-04T07:19:33;1.98;;;1.42;;
85303;SDS011;75708;47.930;13.782;2024-02-04T07:22:00;5.72;;;1.75;;
85303;SDS011;75708;47.930;13.782;2024-02-04T07:24:26;1.80;;;1.05;;
85303;SDS011;75708;47.930;13.782;2024-02-04T07:26:52;4.05;;;1.77;;
85303;SDS011;75708;47.930;13.782;2024-02-04T07:29:18;2.63;;;1.42;;
85303;SDS011;75708;47.930;13.782;2024-02-04T07:31:44;3.15;;;1.70;;
85303;SDS011;75708;47.930;13.782;2024-02-04T07:34:10;1.77;;;0.68;;
85303;SDS011;75708;47.930;13.782;2024-02-04T07:36:35;1.65;;;0.93;;
85303;SDS011;75708;47.930;13.782;2024-02-04T07:39:02;4.05;;;1.10;;
85303;SDS011;75708;47.930;13.782;2024-02-04T07:41:29;3.65;;;0.85;;
85303;SDS011;75708;47.930;13.782;2024-02-04T07:43:56;2.67;;;1.00;;
85303;SDS011;75708;47.930;13.782;2024-02-04T07:46:22;1.67;;;0.75;;
85303;SDS011;75708;47.930;13.782;2024-02-04T07:48:47;1.02;;;0.60;;
85303;SDS011;75708;47.930;13.782;2024-02-04T07:51:13;1.75;;;0.98;;
85303;SDS011;75708;47.930;13.782;2024-02-04T07:53:39;1.90;;;0.98;;
85303;SDS011;75708;47.930;13.782;2024-02-04T07:56:05;2.28;;;0.88;;
85303;SDS011;75708;47.930;13.782;2024-02-04T07:58:32;1.67;;;0.75;;
85303;SDS011;75708;47.930;13.782;2024-02-04T08:00:58;0.93;;;0.63;;
85303;SDS011;75708;47.930;13.782;2024-02-04T08:03:24;2.65;;;1.00;;
85303;SDS011;75708;47.930;13.782;2024-02-04T08:05:50;2.88;;;0.80;;
85303;SDS011;75708;47.930;13.782;2024-02-04T08:08:15;2.38;;;0.98;;
85303;SDS011;75708;47.930;13.782;2024-02-04T08:10:41;0.95;;;0.65;;
85303;SDS011;75708;47.930;13.782;2024-02-04T08:13:07;1.52;;;0.77;;
85303;SDS011;75708;47.930;13.782;2024-02-04T08:15:34;5.07;;;0.98;;
85303;SDS011;75708;47.930;13.782;2024-02-04T08:18:00;1.13;;;0.70;;
85303;SDS011;75708;47.930;13.782;2024-02-04T08:20:26;4.80;;;1.10;;
85303;SDS011;75708;47.930;13.782;2024-02-04T08:22:52;0.90;;;0.52;;
85303;SDS011;75708;47.930;13.782;2024-02-04T08:25:18;1.55;;;0.90;;
85303;SDS011;75708;47.930;13.782;2024-02-04T08:27:44;1.30;;;0.50;;
85303;SDS011;75708;47.930;13.782;2024-02-04T08:30:09;2.55;;;0.80;;
85303;SDS011;75708;47.930;13.782;2024-02-04T08:32:37;1.00;;;0.55;;
85303;SDS011;75708;47.930;13.782;2024-02-04T08:35:03;3.60;;;1.05;;
85303;SDS011;75708;47.930;13.782;2024-02-04T08:37:31;1.92;;;0.80;;
85303;SDS011;75708;47.930;13.782;2024-02-04T08:40:01;1.40;;;0.70;;
85303;SDS011;75708;47.930;13.782;2024-02-04T08:42:28;2.17;;;0.75;;
85303;SDS011;75708;47.930;13.782;2024-02-04T08:44:54;1.80;;;0.90;;
85303;SDS011;75708;47.930;13.782;2024-02-04T08:47:20;1.70;;;0.73;;
85303;SDS011;75708;47.930;13.782;2024-02-04T08:49:46;0.95;;;0.50;;
85303;SDS011;75708;47.930;13.782;2024-02-04T08:52:11;1.30;;;0.70;;
85303;SDS011;75708;47.930;13.782;2024-02-04T08:54:37;2.08;;;0.60;;
85303;SDS011;75708;47.930;13.782;2024-02-04T08:57:03;2.15;;;0.80;;
85303;SDS011;75708;47.930;13.782;2024-02-04T08:59:29;1.70;;;0.73;;
85303;SDS011;75708;47.930;13.782;2024-02-04T09:01:55;1.75;;;0.60;;
85303;SDS011;75708;47.930;13.782;2024-02-04T09:04:20;3.58;;;1.02;;
85303;SDS011;75708;47.930;13.782;2024-02-04T09:06:46;3.33;;;1.20;;
85303;SDS011;75708;47.930;13.782;2024-02-04T09:09:12;1.98;;;1.10;;
85303;SDS011;75708;47.930;13.782;2024-02-04T09:11:38;3.72;;;1.35;;
85303;SDS011;75708;47.930;13.782;2024-02-04T09:14:03;3.92;;;1.00;;
85303;SDS011;75708;47.930;13.782;2024-02-04T09:16:29;5.68;;;1.42;;
85303;SDS011;75708;47.930;13.782;2024-02-04T09:18:55;2.08;;;0.90;;
85303;SDS011;75708;47.930;13.782;2024-02-04T09:21:20;2.55;;;0.90;;
85303;SDS011;75708;47.930;13.782;2024-02-04T09:23:47;2.25;;;1.08;;
85303;SDS011;75708;47.930;13.782;2024-02-04T09:26:13;5.90;;;1.15;;
85303;SDS011;75708;47.930;13.782;2024-02-04T09:28:39;6.32;;;1.70;;
85303;SDS011;75708;47.930;13.782;2024-02-04T09:31:07;3.88;;;1.55;;
85303;SDS011;75708;47.930;13.782;2024-02-04T09:33:33;4.30;;;1.15;;
85303;SDS011;75708;47.930;13.782;2024-02-04T09:36:00;8.20;;;1.52;;
85303;SDS011;75708;47.930;13.782;2024-02-04T09:38:26;2.70;;;1.10;;
85303;SDS011;75708;47.930;13.782;2024-02-04T09:40:52;3.53;;;1.60;;
85303;SDS011;75708;47.930;13.782;2024-02-04T09:43:17;3.40;;;1.23;;
85303;SDS011;75708;47.930;13.782;2024-02-04T09:45:44;4.30;;;1.45;;
85303;SDS011;75708;47.930;13.782;2024-02-04T09:48:10;6.38;;;1.52;;
85303;SDS011;75708;47.930;13.782;2024-02-04T09:50:37;4.05;;;1.38;;
85303;SDS011;75708;47.930;13.782;2024-02-04T09:53:03;2.20;;;1.30;;
85303;SDS011;75708;47.930;13.782;2024-02-04T09:55:33;10.20;;;2.08;;
85303;SDS011;75708;47.930;13.782;2024-02-04T09:58:00;4.40;;;0.98;;
85303;SDS011;75708;47.930;13.782;2024-02-04T10:00:27;3.72;;;1.25;;
85303;SDS011;75708;47.930;13.782;2024-02-04T10:02:54;9.65;;;1.63;;
85303;SDS011;75708;47.930;13.782;2024-02-04T10:05:20;5.63;;;1.25;;
85303;SDS011;75708;47.930;13.782;2024-02-04T10:07:46;4.40;;;1.08;;
85303;SDS011;75708;47.930;13.782;2024-02-04T10:10:12;2.85;;;0.90;;
85303;SDS011;75708;47.930;13.782;2024-02-04T10:12:38;8.88;;;0.70;;
85303;SDS011;75708;47.930;13.782;2024-02-04T10:15:06;5.55;;;1.15;;
85303;SDS011;75708;47.930;13.782;2024-02-04T10:17:32;3.35;;;1.52;;
85303;SDS011;75708;47.930;13.782;2024-02-04T10:19:59;4.70;;;1.23;;
85303;SDS011;75708;47.930;13.782;2024-02-04T10:22:26;3.40;;;1.50;;
85303;SDS011;75708;47.930;13.782;2024-02-04T10:24:53;6.93;;;1.15;;
85303;SDS011;75708;47.930;13.782;2024-02-04T10:27:19;3.65;;;0.98;;
85303;SDS011;75708;47.930;13.782;2024-02-04T10:29:45;4.68;;;1.38;;
85303;SDS011;75708;47.930;13.782;2024-02-04T10:32:11;2.67;;;0.55;;
85303;SDS011;75708;47.930;13.782;2024-02-04T10:34:38;2.70;;;0.80;;
85303;SDS011;75708;47.930;13.782;2024-02-04T10:37:04;3.83;;;1.02;;
85303;SDS011;75708;47.930;13.782;2024-02-04T10:39:30;3.42;;;1.10;;
85303;SDS011;75708;47.930;13.782;2024-02-04T10:41:58;7.60;;;1.25;;
85303;SDS011;75708;47.930;13.782;2024-02-04T10:44:28;6.07;;;1.67;;
85303;SDS011;75708;47.930;13.782;2024-02-04T10:47:00;2.65;;;0.90;;
85303;SDS011;75708;47.930;13.782;2024-02-04T10:49:31;3.28;;;1.13;;
85303;SDS011;75708;47.930;13.782;2024-02-04T10:51:59;3.45;;;0.82;;
85303;SDS011;75708;47.930;13.782;2024-02-04T10:54:28;4.10;;;0.98;;
85303;SDS011;75708;47.930;13.782;2024-02-04T10:56:57;8.10;;;1.20;;
85303;SDS011;75708;47.930;13.782;2024-02-04T10:59:30;4.63;;;2.05;;
85303;SDS011;75708;47.930;13.782;2024-02-04T11:01:58;3.20;;;0.65;;
85303;SDS011;75708;47.930;13.782;2024-02-04T11:04:24;7.15;;;1.27;;
85303;SDS011;75708;47.930;13.782;2024-02-04T11:06:51;4.07;;;0.98;;
85303;SDS011;75708;47.930;13.782;2024-02-04T11:09:19;5.45;;;0.57;;
85303;SDS011;75708;47.930;13.782;2024-02-04T11:11:45;4.30;;;0.93;;
85303;SDS011;75708;47.930;13.782;2024-02-04T11:14:12;5.07;;;1.02;;
85303;SDS011;75708;47.930;13.782;2024-02-04T11:27:27;4.07;;;0.77;;
85303;SDS011;75708;47.930;13.782;2024-02-04T11:29:54;3.40;;;0.75;;
85303;SDS011;75708;47.930;13.782;2024-02-04T11:32:20;6.28;;;1.50;;
85303;SDS011;75708;47.930;13.782;2024-02-04T11:34:46;6.47;;;1.25;;
85303;SDS011;75708;47.930;13.782;2024-02-04T11:37:18;4.60;;;1.13;;
85303;SDS011;75708;47.930;13.782;2024-02-04T11:39:51;5.68;;;1.80;;
85303;SDS011;75708;47.930;13.782;2024-02-04T11:42:17;3.72;;;1.42;;
85303;SDS011;75708;47.930;13.782;2024-02-04T11:44:43;1.60;;;0.63;;
85303;SDS011;75708;47.930;13.782;2024-02-04T11:47:10;3.83;;;1.38;;
85303;SDS011;75708;47.930;13.782;2024-02-04T11:49:36;3.47;;;1.27;;
85303;SDS011;75708;47.930;13.782;2024-02-04T11:52:02;4.68;;;1.00;;
85303;SDS011;75708;47.930;13.782;2024-02-04T11:54:27;1.70;;;0.65;;
85303;SDS011;75708;47.930;13.782;2024-02-04T11:56:53;5.70;;;1.05;;
85303;SDS011;75708;47.930;13.782;2024-02-04T11:59:24;5.63;;;0.80;;
85303;SDS011;75708;47.930;13.782;2024-02-04T12:01:57;3.08;;;1.00;;
85303;SDS011;75708;47.930;13.782;2024-02-04T12:04:31;6.50;;;1.65;;
85303;SDS011;75708;47.930;13.782;2024-02-04T12:06:57;5.13;;;1.17;;
85303;SDS011;75708;47.930;13.782;2024-02-04T12:09:23;2.30;;;0.77;;
85303;SDS011;75708;47.930;13.782;2024-02-04T12:11:51;4.65;;;1.58;;
85303;SDS011;75708;47.930;13.782;2024-02-04T12:14:19;3.90;;;0.90;;
85303;SDS011;75708;47.930;13.782;2024-02-04T12:16:45;3.42;;;0.93;;
85303;SDS011;75708;47.930;13.782;2024-02-04T12:19:10;8.73;;;1.35;;
85303;SDS011;75708;47.930;13.782;2024-02-04T12:21:36;6.85;;;1.52;;
85303;SDS011;75708;47.930;13.782;2024-02-04T12:24:02;2.50;;;0.90;;
85303;SDS011;75708;47.930;13.782;2024-02-04T12:26:29;4.05;;;1.00;;
85303;SDS011;75708;47.930;13.782;2024-02-04T12:28:55;1.73;;;0.65;;
85303;SDS011;75708;47.930;13.782;2024-02-04T12:31:21;9.13;;;1.02;;
85303;SDS011;75708;47.930;13.782;2024-02-04T12:33:53;2.67;;;0.88;;
85303;SDS011;75708;47.930;13.782;2024-02-04T12:36:20;3.83;;;1.33;;
85303;SDS011;75708;47.930;13.782;2024-02-04T12:38:52;4.35;;;1.08;;
85303;SDS011;75708;47.930;13.782;2024-02-04T12:41:22;5.25;;;1.00;;
85303;SDS011;75708;47.930;13.782;2024-02-04T12:43:56;6.18;;;1.02;;
85303;SDS011;75708;47.930;13.782;2024-02-04T12:46:23;4.07;;;1.10;;
85303;SDS011;75708;47.930;13.782;2024-02-04T12:48:53;1.67;;;0.70;;
85303;SDS011;75708;47.930;13.782;2024-02-04T12:54:01;4.88;;;1.13;;
85303;SDS011;75708;47.930;13.782;2024-02-04T12:59:10;4.30;;;1.08;;
85303;SDS011;75708;47.930;13.782;2024-02-04T13:01:40;6.82;;;1.20;;
85303;SDS011;75708;47.930;13.782;2024-02-04T13:04:06;3.65;;;1.10;;
85303;SDS011;75708;47.930;13.782;2024-02-04T13:06:36;4.45;;;1.20;;
85303;SDS011;75708;47.930;13.782;2024-02-04T13:09:03;3.03;;;1.10;;
85303;SDS011;75708;47.930;13.782;2024-02-04T13:11:31;4.43;;;0.93;;
85303;SDS011;75708;47.930;13.782;2024-02-04T13:13:56;7.38;;;1.30;;
85303;SDS011;75708;47.930;13.782;2024-02-04T13:16:22;4.20;;;1.60;;
85303;SDS011;75708;47.930;13.782;2024-02-04T13:18:54;6.22;;;1.70;;
85303;SDS011;75708;47.930;13.782;2024-02-04T13:21:20;1.77;;;0.90;;
85303;SDS011;75708;47.930;13.782;2024-02-04T13:23:47;4.47;;;1.20;;
85303;SDS011;75708;47.930;13.782;2024-02-04T13:26:15;2.92;;;1.10;;
85303;SDS011;75708;47.930;13.782;2024-02-04T13:28:41;5.05;;;1.15;;
85303;SDS011;75708;47.930;13.782;2024-02-04T13:31:08;8.90;;;1.10;;
85303;SDS011;75708;47.930;13.782;2024-02-04T13:33:34;6.43;;;1.65;;
85303;SDS011;75708;47.930;13.782;2024-02-04T13:35:59;2.90;;;0.85;;
85303;SDS011;75708;47.930;13.782;2024-02-04T13:38:25;6.28;;;1.20;;
85303;SDS011;75708;47.930;13.782;2024-02-04T13:40:51;2.17;;;0.80;;
85303;SDS011;75708;47.930;13.782;2024-02-04T13:43:18;5.72;;;1.38;;
85303;SDS011;75708;47.930;13.782;2024-02-04T13:45:44;5.63;;;0.93;;
85303;SDS011;75708;47.930;13.782;2024-02-04T13:48:10;3.65;;;1.20;;
85303;SDS011;75708;47.930;13.782;2024-02-04T13:50:35;2.67;;;0.90;;
85303;SDS011;75708;47.930;13.782;2024-02-04T13:53:02;3.90;;;1.08;;
85303;SDS011;75708;47.930;13.782;2024-02-04T13:55:28;4.75;;;1.25;;
85303;SDS011;75708;47.930;13.782;2024-02-04T13:57:54;4.72;;;0.98;;
85303;SDS011;75708;47.930;13.782;2024-02-04T14:00:19;8.10;;;1.30;;
85303;SDS011;75708;47.930;13.782;2024-02-04T14:02:45;5.10;;;1.83;;
85303;SDS011;75708;47.930;13.782;2024-02-04T14:05:11;4.32;;;1.00;;
85303;SDS011;75708;47.930;13.782;2024-02-04T14:07:37;3.80;;;0.93;;
85303;SDS011;75708;47.930;13.782;2024-02-04T14:10:02;3.47;;;0.70;;
85303;SDS011;75708;47.930;13.782;2024-02-04T14:12:28;8.35;;;1.42;;
85303;SDS011;75708;47.930;13.782;2024-02-04T14:14:54;6.15;;;0.80;;
85303;SDS011;75708;47.930;13.782;2024-02-04T14:17:21;2.10;;;0.68;;
85303;SDS011;75708;47.930;13.782;2024-02-04T14:19:47;6.80;;;1.25;;
85303;SDS011;75708;47.930;13.782;2024-02-04T14:22:16;5.22;;;0.95;;
85303;SDS011;75708;47.930;13.782;2024-02-04T14:24:43;2.90;;;0.73;;
85303;SDS011;75708;47.930;13.782;2024-02-04T14:27:10;1.10;;;0.50;;
85303;SDS011;75708;47.930;13.782;2024-02-04T14:29:36;4.47;;;0.80;;
85303;SDS011;75708;47.930;13.782;2024-02-04T14:32:02;9.30;;;1.02;;
85303;SDS011;75708;47.930;13.782;2024-02-04T14:34:28;2.60;;;0.60;;
85303;SDS011;75708;47.930;13.782;2024-02-04T14:36:54;10.02;;;1.27;;
85303;SDS011;75708;47.930;13.782;2024-02-04T14:39:19;4.13;;;1.02;;
85303;SDS011;75708;47.930;13.782;2024-02-04T14:41:45;6.85;;;0.90;;
85303;SDS011;75708;47.930;13.782;2024-02-04T14:44:11;2.85;;;0.82;;
85303;SDS011;75708;47.930;13.782;2024-02-04T14:46:37;4.22;;;0.85;;
85303;SDS011;75708;47.930;13.782;2024-02-04T14:49:03;4.65;;;1.20;;
85303;SDS011;75708;47.930;13.782;2024-02-04T14:51:29;4.72;;;0.95;;